sensor_id;sensor_type;location;lat;lon;timestamp;pressure;altitude;pressure_sealevel;temperature;humidity
63568;BME280;49715;42.386;20.434;2023-02-04T00:02:03;97379.38;;;7.44;39.55
63568;BME280;49715;42.386;20.434;2023-02-04T00:04:29;97383.56;;;7.47;39.69
63568;BME280;49715;42.386;20.434;2023-02-04T00:06:55;97393.50;;;7.53;39.64
63568;BME280;49715;42.386;20.434;2023-02-04T00:09:22;97387.28;;;7.54;39.90
63568;BME280;49715;42.386;20.434;2023-02-04T00:11:48;97393.78;;;7.60;40.10
63568;BME280;49715;42.386;20.434;2023-02-04T00:14:16;97381.78;;;7.57;40.04
63568;BME280;49715;42.386;20.434;2023-02-04T00:16:42;97394.13;;;7.66;40.17
63568;BME280;49715;42.386;20.434;2023-02-04T00:19:09;97386.69;;;7.71;40.05
63568;BME280;49715;42.386;20.434;2023-02-04T00:21:35;97389.84;;;7.75;40.36
63568;BME280;49715;42.386;20.434;2023-02-04T00:24:01;97385.56;;;7.74;40.46
63568;BME280;49715;42.386;20.434;2023-02-04T00:26:28;97398.13;;;7.80;40.19
63568;BME280;49715;42.386;20.434;2023-02-04T00:28:54;97392.22;;;7.78;40.43
63568;BME280;49715;42.386;20.434;2023-02-04T00:31:21;97391.22;;;7.79;40.31
63568;BME280;49715;42.386;20.434;2023-02-04T00:33:47;97373.16;;;7.76;40.32
63568;BME280;49715;42.386;20.434;2023-02-04T00:36:14;97380.88;;;7.78;40.33
63568;BME280;49715;42.386;20.434;2023-02-04T00:38:42;97392.59;;;7.73;40.28
63568;BME280;49715;42.386;20.434;2023-02-04T00:41:09;97388.59;;;7.69;40.25
63568;BME280;49715;42.386;20.434;2023-02-04T00:43:35;97382.38;;;7.70;40.34
63568;BME280;49715;42.386;20.434;2023-02-04T00:46:04;97370.06;;;7.61;40.31
63568;BME280;49715;42.386;20.434;2023-02-04T00:48:31;97376.69;;;7.65;40.36
63568;BME280;49715;42.386;20.434;2023-02-04T00:51:00;97377.94;;;7.61;40.45
63568;BME280;49715;42.386;20.434;2023-02-04T00:53:28;97374.47;;;7.61;40.55
63568;BME280;49715;42.386;20.434;2023-02-04T00:55:56;97378.06;;;7.60;40.55
63568;BME280;49715;42.386;20.434;2023-02-04T00:58:23;97358.59;;;7.53;40.80
63568;BME280;49715;42.386;20.434;2023-02-04T01:00:49;97363.94;;;7.51;40.82
63568;BME280;49715;42.386;20.434;2023-02-04T01:03:16;97350.16;;;7.49;41.14
63568;BME280;49715;42.386;20.434;2023-02-04T01:05:42;97349.88;;;7.52;41.22
63568;BME280;49715;42.386;20.434;2023-02-04T01:08:10;97349.06;;;7.52;41.21
63568;BME280;49715;42.386;20.434;2023-02-04T01:10:36;97341.31;;;7.50;41.44
63568;BME280;49715;42.386;20.434;2023-02-04T01:13:03;97338.84;;;7.48;41.57
63568;BME280;49715;42.386;20.434;2023-02-04T01:15:29;97336.47;;;7.45;41.77
63568;BME280;49715;42.386;20.434;2023-02-04T01:17:56;97334.22;;;7.41;41.56
63568;BME280;49715;42.386;20.434;2023-02-04T01:20:22;97327.31;;;7.30;42.05
63568;BME280;49715;42.386;20.434;2023-02-04T01:22:49;97350.75;;;7.32;42.01
63568;BME280;49715;42.386;20.434;2023-02-04T01:25:15;97345.09;;;7.27;42.13
63568;BME280;49715;42.386;20.434;2023-02-04T01:27:45;97342.47;;;7.27;42.38
63568;BME280;49715;42.386;20.434;2023-02-04T01:30:13;97329.75;;;7.22;42.53
63568;BME280;49715;42.386;20.434;2023-02-04T01:32:39;97343.56;;;7.24;42.83
63568;BME280;49715;42.386;20.434;2023-02-04T01:35:07;97331.44;;;7.23;42.69
63568;BME280;49715;42.386;20.434;2023-02-04T01:37:34;97328.91;;;7.21;42.81
63568;BME280;49715;42.386;20.434;2023-02-04T01:40:00;97312.66;;;7.18;43.10
63568;BME280;49715;42.386;20.434;2023-02-04T01:42:27;97315.56;;;7.25;42.75
63568;BME280;49715;42.386;20.434;2023-02-04T01:44:53;97296.53;;;7.22;42.93
63568;BME280;49715;42.386;20.434;2023-02-04T01:47:20;97303.81;;;7.19;44.68
63568;BME280;49715;42.386;20.434;2023-02-04T01:49:49;97295.00;;;7.20;43.22
63568;BME280;49715;42.386;20.434;2023-02-04T01:52:16;97295.97;;;7.19;43.07
63568;BME280;49715;42.386;20.434;2023-02-04T01:54:43;97307.41;;;7.18;43.38
63568;BME280;49715;42.386;20.434;2023-02-04T01:57:14;97301.75;;;7.13;43.50
63568;BME280;49715;42.386;20.434;2023-02-04T01:59:45;97281.81;;;7.01;44.01
63568;BME280;49715;42.386;20.434;2023-02-04T02:05:04;97292.25;;;6.91;43.97
63568;BME280;49715;42.386;20.434;2023-02-04T02:07:31;97275.66;;;6.81;44.30
63568;BME280;49715;42.386;20.434;2023-02-04T02:09:57;97263.63;;;6.78;44.21
63568;BME280;49715;42.386;20.434;2023-02-04T02:12:24;97264.31;;;6.70;44.54
63568;BME280;49715;42.386;20.434;2023-02-04T02:14:50;97259.72;;;6.63;44.79
63568;BME280;49715;42.386;20.434;2023-02-04T02:17:17;97273.91;;;6.60;44.81
63568;BME280;49715;42.386;20.434;2023-02-04T02:19:44;97267.25;;;6.56;44.90
63568;BME280;49715;42.386;20.434;2023-02-04T02:22:22;97274.69;;;6.51;45.37
63568;BME280;49715;42.386;20.434;2023-02-04T02:24:50;97277.91;;;6.43;45.13
63568;BME280;49715;42.386;20.434;2023-02-04T02:27:18;97270.59;;;6.37;47.73
63568;BME280;49715;42.386;20.434;2023-02-04T02:29:44;97264.38;;;6.38;45.25
63568;BME280;49715;42.386;20.434;2023-02-04T02:32:12;97267.16;;;6.37;45.16
63568;BME280;49715;42.386;20.434;2023-02-04T02:34:40;97249.06;;;6.34;45.21
63568;BME280;49715;42.386;20.434;2023-02-04T02:37:07;97274.03;;;6.38;45.21
63568;BME280;49715;42.386;20.434;2023-02-04T02:39:36;97271.41;;;6.38;45.23
63568;BME280;49715;42.386;20.434;2023-02-04T02:42:03;97267.84;;;6.39;45.50
63568;BME280;49715;42.386;20.434;2023-02-04T02:44:30;97251.06;;;6.41;45.51
63568;BME280;49715;42.386;20.434;2023-02-04T02:46:57;97271.31;;;6.39;45.46
63568;BME280;49715;42.386;20.434;2023-02-04T02:49:24;97263.47;;;6.39;45.55
63568;BME280;49715;42.386;20.434;2023-02-04T02:51:51;97259.97;;;6.39;45.73
63568;BME280;49715;42.386;20.434;2023-02-04T02:54:22;97260.69;;;6.41;45.66
63568;BME280;49715;42.386;20.434;2023-02-04T02:56:51;97237.53;;;6.36;45.52
63568;BME280;49715;42.386;20.434;2023-02-04T02:59:20;97228.03;;;6.35;45.63
63568;BME280;49715;42.386;20.434;2023-02-04T03:01:59;97230.75;;;6.34;45.79
63568;BME280;49715;42.386;20.434;2023-02-04T03:04:31;97242.31;;;6.31;45.95
63568;BME280;49715;42.386;20.434;2023-02-04T03:06:59;97250.16;;;6.31;45.78
63568;BME280;49715;42.386;20.434;2023-02-04T03:09:27;97243.97;;;6.32;45.57
63568;BME280;49715;42.386;20.434;2023-02-04T03:11:54;97248.38;;;6.32;45.67
63568;BME280;49715;42.386;20.434;2023-02-04T03:14:22;97246.19;;;6.37;45.71
63568;BME280;49715;42.386;20.434;2023-02-04T03:16:51;97243.84;;;6.34;45.69
63568;BME280;49715;42.386;20.434;2023-02-04T03:19:24;97247.84;;;6.38;45.85
63568;BME280;49715;42.386;20.434;2023-02-04T03:21:52;97247.84;;;6.38;45.52
63568;BME280;49715;42.386;20.434;2023-02-04T03:24:22;97244.16;;;6.40;45.80
63568;BME280;49715;42.386;20.434;2023-02-04T03:26:48;97244.16;;;6.40;45.52
63568;BME280;49715;42.386;20.434;2023-02-04T03:29:15;97245.00;;;6.41;46.02
63568;BME280;49715;42.386;20.434;2023-02-04T03:31:41;97237.97;;;6.41;45.87
63568;BME280;49715;42.386;20.434;2023-02-04T03:34:08;97217.72;;;6.43;45.73
63568;BME280;49715;42.386;20.434;2023-02-04T03:36:34;97221.56;;;6.39;45.77
63568;BME280;49715;42.386;20.434;2023-02-04T03:39:02;97222.94;;;6.43;45.76
63568;BME280;49715;42.386;20.434;2023-02-04T03:41:29;97212.19;;;6.37;45.70
63568;BME280;49715;42.386;20.434;2023-02-04T03:43:55;97225.69;;;6.42;45.96
63568;BME280;49715;42.386;20.434;2023-02-04T03:46:21;97233.56;;;6.42;45.59
63568;BME280;49715;42.386;20.434;2023-02-04T03:48:51;97231.75;;;6.42;45.69
63568;BME280;49715;42.386;20.434;2023-02-04T03:51:17;97220.59;;;6.40;45.87
63568;BME280;49715;42.386;20.434;2023-02-04T03:53:43;97204.19;;;6.38;45.98
63568;BME280;49715;42.386;20.434;2023-02-04T03:56:10;97206.50;;;6.32;46.12
63568;BME280;49715;42.386;20.434;2023-02-04T03:58:36;97198.78;;;6.30;45.86
63568;BME280;49715;42.386;20.434;2023-02-04T04:01:03;97189.25;;;6.29;46.09
63568;BME280;49715;42.386;20.434;2023-02-04T04:03:29;97196.56;;;6.26;46.20
63568;BME280;49715;42.386;20.434;2023-02-04T04:05:55;97182.75;;;6.24;46.43
63568;BME280;49715;42.386;20.434;2023-02-04T04:08:22;97186.56;;;6.19;46.60
63568;BME280;49715;42.386;20.434;2023-02-04T04:10:48;97186.19;;;6.24;46.55
63568;BME280;49715;42.386;20.434;2023-02-04T04:13:15;97192.38;;;6.23;46.45
63568;BME280;49715;42.386;20.434;2023-02-04T04:15:41;97208.81;;;6.25;46.58
63568;BME280;49715;42.386;20.434;2023-02-04T04:18:07;97200.38;;;6.22;46.54
63568;BME280;49715;42.386;20.434;2023-02-04T04:20:34;97254.56;;;6.31;46.60
63568;BME280;49715;42.386;20.434;2023-02-04T04:23:00;97260.06;;;6.28;46.64
63568;BME280;49715;42.386;20.434;2023-02-04T04:25:27;97294.66;;;6.31;46.68
63568;BME280;49715;42.386;20.434;2023-02-04T04:27:53;97294.09;;;6.28;46.86
63568;BME280;49715;42.386;20.434;2023-02-04T04:30:20;97303.72;;;6.27;46.87
63568;BME280;49715;42.386;20.434;2023-02-04T04:32:46;97309.28;;;6.34;46.70
63568;BME280;49715;42.386;20.434;2023-02-04T04:35:13;97304.88;;;6.34;46.97
63568;BME280;49715;42.386;20.434;2023-02-04T04:37:39;97296.78;;;6.37;46.76
63568;BME280;49715;42.386;20.434;2023-02-04T04:40:06;97306.16;;;6.40;46.70
63568;BME280;49715;42.386;20.434;2023-02-04T04:42:32;97303.47;;;6.30;46.86
63568;BME280;49715;42.386;20.434;2023-02-04T04:44:59;97325.19;;;6.42;47.22
63568;BME280;49715;42.386;20.434;2023-02-04T04:47:25;97326.72;;;6.44;46.66
63568;BME280;49715;42.386;20.434;2023-02-04T04:49:53;97332.28;;;6.51;46.70
63568;BME280;49715;42.386;20.434;2023-02-04T04:52:19;97329.53;;;6.53;46.68
63568;BME280;49715;42.386;20.434;2023-02-04T04:54:45;97335.41;;;6.66;46.87
63568;BME280;49715;42.386;20.434;2023-02-04T04:57:12;97337.88;;;6.67;46.50
63568;BME280;49715;42.386;20.434;2023-02-04T04:59:38;97343.75;;;6.81;46.73
63568;BME280;49715;42.386;20.434;2023-02-04T05:02:05;97340.91;;;6.84;46.61
63568;BME280;49715;42.386;20.434;2023-02-04T05:04:31;97343.56;;;6.93;46.91
63568;BME280;49715;42.386;20.434;2023-02-04T05:06:58;97345.66;;;7.00;46.67
63568;BME280;49715;42.386;20.434;2023-02-04T05:09:24;97356.34;;;7.08;46.71
63568;BME280;49715;42.386;20.434;2023-02-04T05:11:51;97360.22;;;7.13;46.62
63568;BME280;49715;42.386;20.434;2023-02-04T05:14:17;97353.88;;;7.16;46.79
63568;BME280;49715;42.386;20.434;2023-02-04T05:16:44;97360.53;;;7.20;47.02
63568;BME280;49715;42.386;20.434;2023-02-04T05:19:10;97356.09;;;7.20;46.84
63568;BME280;49715;42.386;20.434;2023-02-04T05:21:36;97338.81;;;7.08;47.16
63568;BME280;49715;42.386;20.434;2023-02-04T05:24:03;97349.81;;;7.02;47.64
63568;BME280;49715;42.386;20.434;2023-02-04T05:26:31;97360.50;;;6.89;47.82
63568;BME280;49715;42.386;20.434;2023-02-04T05:28:58;97374.50;;;6.79;48.26
63568;BME280;49715;42.386;20.434;2023-02-04T05:31:28;97363.13;;;6.68;48.44
63568;BME280;49715;42.386;20.434;2023-02-04T05:33:55;97337.97;;;6.56;49.04
63568;BME280;49715;42.386;20.434;2023-02-04T05:36:22;97335.78;;;6.40;49.70
63568;BME280;49715;42.386;20.434;2023-02-04T05:38:48;97326.44;;;6.27;49.71
63568;BME280;49715;42.386;20.434;2023-02-04T05:41:14;97324.59;;;6.17;49.80
63568;BME280;49715;42.386;20.434;2023-02-04T05:43:41;97304.03;;;6.13;50.32
63568;BME280;49715;42.386;20.434;2023-02-04T05:46:08;97286.34;;;6.05;50.83
63568;BME280;49715;42.386;20.434;2023-02-04T05:48:34;97298.84;;;6.02;50.85
63568;BME280;49715;42.386;20.434;2023-02-04T05:51:01;97295.06;;;5.94;50.72
63568;BME280;49715;42.386;20.434;2023-02-04T05:53:27;97300.44;;;5.93;50.95
63568;BME280;49715;42.386;20.434;2023-02-04T05:55:53;97299.59;;;5.92;50.98
63568;BME280;49715;42.386;20.434;2023-02-04T05:58:20;97306.81;;;5.89;51.18
63568;BME280;49715;42.386;20.434;2023-02-04T06:00:46;97302.69;;;5.86;51.48
63568;BME280;49715;42.386;20.434;2023-02-04T06:03:13;97310.53;;;5.86;51.62
63568;BME280;49715;42.386;20.434;2023-02-04T06:05:40;97318.63;;;5.83;51.84
63568;BME280;49715;42.386;20.434;2023-02-04T06:08:07;97309.34;;;5.79;52.18
63568;BME280;49715;42.386;20.434;2023-02-04T06:10:33;97301.78;;;5.76;52.33
63568;BME280;49715;42.386;20.434;2023-02-04T06:12:59;97310.44;;;5.77;51.98
63568;BME280;49715;42.386;20.434;2023-02-04T06:15:26;97325.63;;;5.83;52.13
63568;BME280;49715;42.386;20.434;2023-02-04T06:17:52;97315.53;;;5.78;52.08
63568;BME280;49715;42.386;20.434;2023-02-04T06:20:19;97320.88;;;5.88;52.36
63568;BME280;49715;42.386;20.434;2023-02-04T06:22:45;97311.22;;;5.88;52.26
63568;BME280;49715;42.386;20.434;2023-02-04T06:25:12;97325.75;;;5.92;52.45
63568;BME280;49715;42.386;20.434;2023-02-04T06:27:39;97321.34;;;5.93;52.32
63568;BME280;49715;42.386;20.434;2023-02-04T06:30:06;97328.69;;;5.99;52.54
63568;BME280;49715;42.386;20.434;2023-02-04T06:32:32;97334.75;;;6.00;52.45
63568;BME280;49715;42.386;20.434;2023-02-04T06:34:58;97337.50;;;5.98;52.43
63568;BME280;49715;42.386;20.434;2023-02-04T06:37:25;97345.13;;;6.01;52.53
63568;BME280;49715;42.386;20.434;2023-02-04T06:39:51;97344.63;;;6.07;52.57
63568;BME280;49715;42.386;20.434;2023-02-04T06:42:19;97339.97;;;6.11;52.26
63568;BME280;49715;42.386;20.434;2023-02-04T06:44:46;97337.34;;;6.11;52.42
63568;BME280;49715;42.386;20.434;2023-02-04T06:47:12;97336.03;;;6.16;52.45
63568;BME280;49715;42.386;20.434;2023-02-04T06:49:39;97346.28;;;6.29;52.32
63568;BME280;49715;42.386;20.434;2023-02-04T06:52:05;97345.91;;;6.34;52.24
63568;BME280;49715;42.386;20.434;2023-02-04T06:54:32;97343.38;;;6.43;52.15
63568;BME280;49715;42.386;20.434;2023-02-04T06:56:58;97334.91;;;6.51;52.15
63568;BME280;49715;42.386;20.434;2023-02-04T06:59:33;97340.19;;;6.61;52.21
63568;BME280;49715;42.386;20.434;2023-02-04T07:02:00;97327.69;;;6.64;52.24
63568;BME280;49715;42.386;20.434;2023-02-04T07:04:27;97321.22;;;6.68;52.03
63568;BME280;49715;42.386;20.434;2023-02-04T07:06:54;97313.25;;;6.70;51.81
63568;BME280;49715;42.386;20.434;2023-02-04T07:09:20;97301.66;;;6.72;51.70
63568;BME280;49715;42.386;20.434;2023-02-04T07:11:47;97284.28;;;6.71;51.86
63568;BME280;49715;42.386;20.434;2023-02-04T07:14:13;97302.25;;;6.76;51.98
63568;BME280;49715;42.386;20.434;2023-02-04T07:16:41;97308.16;;;6.78;51.89
63568;BME280;49715;42.386;20.434;2023-02-04T07:19:07;97299.38;;;6.79;52.03
63568;BME280;49715;42.386;20.434;2023-02-04T07:21:34;97306.41;;;6.79;52.19
63568;BME280;49715;42.386;20.434;2023-02-04T07:24:00;97303.06;;;6.77;52.05
63568;BME280;49715;42.386;20.434;2023-02-04T07:26:28;97314.66;;;6.74;52.04
63568;BME280;49715;42.386;20.434;2023-02-04T07:28:54;97296.56;;;6.71;52.13
63568;BME280;49715;42.386;20.434;2023-02-04T07:31:22;97290.94;;;6.76;52.17
63568;BME280;49715;42.386;20.434;2023-02-04T07:33:48;97287.78;;;6.82;51.99
63568;BME280;49715;42.386;20.434;2023-02-04T07:36:15;97279.28;;;6.89;52.04
63568;BME280;49715;42.386;20.434;2023-02-04T07:38:41;97275.88;;;6.99;52.03
63568;BME280;49715;42.386;20.434;2023-02-04T07:41:08;97284.31;;;7.12;51.86
63568;BME280;49715;42.386;20.434;2023-02-04T07:43:34;97280.38;;;7.17;51.82
63568;BME280;49715;42.386;20.434;2023-02-04T07:46:00;97286.59;;;7.26;51.86
63568;BME280;49715;42.386;20.434;2023-02-04T07:48:27;97279.28;;;7.30;51.59
63568;BME280;49715;42.386;20.434;2023-02-04T07:50:53;97275.03;;;7.38;51.51
63568;BME280;49715;42.386;20.434;2023-02-04T07:53:20;97276.16;;;7.45;51.36
63568;BME280;49715;42.386;20.434;2023-02-04T07:55:47;97262.94;;;7.47;51.38
63568;BME280;49715;42.386;20.434;2023-02-04T07:58:13;97269.94;;;7.56;51.23
63568;BME280;49715;42.386;20.434;2023-02-04T08:00:40;97268.72;;;7.60;51.21
63568;BME280;49715;42.386;20.434;2023-02-04T08:03:06;97279.78;;;7.64;51.31
63568;BME280;49715;42.386;20.434;2023-02-04T08:05:35;97273.00;;;7.71;51.13
63568;BME280;49715;42.386;20.434;2023-02-04T08:08:01;97274.41;;;7.75;51.15
63568;BME280;49715;42.386;20.434;2023-02-04T08:10:28;97287.69;;;7.83;50.92
63568;BME280;49715;42.386;20.434;2023-02-04T08:12:54;97297.75;;;7.88;51.05
63568;BME280;49715;42.386;20.434;2023-02-04T08:15:21;97290.72;;;7.88;50.86
63568;BME280;49715;42.386;20.434;2023-02-04T08:17:47;97289.22;;;7.86;50.63
63568;BME280;49715;42.386;20.434;2023-02-04T08:20:14;97301.06;;;7.90;50.63
63568;BME280;49715;42.386;20.434;2023-02-04T08:22:41;97291.41;;;7.90;50.58
63568;BME280;49715;42.386;20.434;2023-02-04T08:25:09;97290.97;;;7.85;50.59
63568;BME280;49715;42.386;20.434;2023-02-04T08:27:37;97298.84;;;7.85;50.56
63568;BME280;49715;42.386;20.434;2023-02-04T08:30:04;97299.81;;;7.84;50.63
63568;BME280;49715;42.386;20.434;2023-02-04T08:32:31;97290.72;;;7.79;50.70
63568;BME280;49715;42.386;20.434;2023-02-04T08:34:59;97297.19;;;7.84;50.66
63568;BME280;49715;42.386;20.434;2023-02-04T08:37:26;97296.38;;;7.93;50.75
63568;BME280;49715;42.386;20.434;2023-02-04T08:39:53;97289.75;;;7.99;50.50
63568;BME280;49715;42.386;20.434;2023-02-04T08:42:21;97285.22;;;8.01;50.55
63568;BME280;49715;42.386;20.434;2023-02-04T08:44:47;97287.69;;;8.12;50.42
63568;BME280;49715;42.386;20.434;2023-02-04T08:47:14;97284.66;;;8.26;50.39
63568;BME280;49715;42.386;20.434;2023-02-04T08:49:40;97283.09;;;8.34;50.09
63568;BME280;49715;42.386;20.434;2023-02-04T08:52:07;97278.84;;;8.42;50.04
63568;BME280;49715;42.386;20.434;2023-02-04T08:54:36;97272.75;;;8.42;49.85
63568;BME280;49715;42.386;20.434;2023-02-04T08:57:03;97277.72;;;8.55;49.78
63568;BME280;49715;42.386;20.434;2023-02-04T08:59:29;97272.88;;;8.60;49.77
63568;BME280;49715;42.386;20.434;2023-02-04T09:01:56;97266.91;;;8.67;49.63
63568;BME280;49715;42.386;20.434;2023-02-04T09:04:22;97273.94;;;8.76;49.58
63568;BME280;49715;42.386;20.434;2023-02-04T09:06:50;97277.94;;;8.81;49.77
63568;BME280;49715;42.386;20.434;2023-02-04T09:09:16;97274.41;;;8.99;49.50
63568;BME280;49715;42.386;20.434;2023-02-04T09:11:43;97271.59;;;9.11;49.40
63568;BME280;49715;42.386;20.434;2023-02-04T09:14:10;97276.97;;;9.19;49.03
63568;BME280;49715;42.386;20.434;2023-02-04T09:16:36;97261.03;;;9.20;48.70
63568;BME280;49715;42.386;20.434;2023-02-04T09:19:03;97262.69;;;9.21;48.71
63568;BME280;49715;42.386;20.434;2023-02-04T09:21:31;97257.41;;;9.21;48.64
63568;BME280;49715;42.386;20.434;2023-02-04T09:23:57;97256.34;;;9.14;48.39
63568;BME280;49715;42.386;20.434;2023-02-04T09:26:23;97261.56;;;9.24;48.76
63568;BME280;49715;42.386;20.434;2023-02-04T09:28:52;97262.88;;;9.38;48.51
63568;BME280;49715;42.386;20.434;2023-02-04T09:31:18;97252.44;;;9.46;48.29
63568;BME280;49715;42.386;20.434;2023-02-04T09:33:45;97250.88;;;9.53;48.07
63568;BME280;49715;42.386;20.434;2023-02-04T09:36:11;97247.19;;;9.46;48.10
63568;BME280;49715;42.386;20.434;2023-02-04T09:38:38;97258.09;;;9.51;47.80
63568;BME280;49715;42.386;20.434;2023-02-04T09:41:10;97262.38;;;9.52;48.03
63568;BME280;49715;42.386;20.434;2023-02-04T09:43:40;97248.84;;;9.65;47.99
63568;BME280;49715;42.386;20.434;2023-02-04T09:46:33;97246.00;;;9.76;47.74
63568;BME280;49715;42.386;20.434;2023-02-04T09:49:00;97247.28;;;9.90;47.71
63568;BME280;49715;42.386;20.434;2023-02-04T09:51:32;97242.75;;;10.00;47.68
63568;BME280;49715;42.386;20.434;2023-02-04T09:54:08;97237.75;;;10.06;47.39
63568;BME280;49715;42.386;20.434;2023-02-04T09:56:37;97248.66;;;10.12;47.25
63568;BME280;49715;42.386;20.434;2023-02-04T09:59:13;97253.13;;;10.19;47.13
63568;BME280;49715;42.386;20.434;2023-02-04T10:01:40;97244.94;;;10.22;47.04
63568;BME280;49715;42.386;20.434;2023-02-04T10:04:12;97229.81;;;10.24;47.17
63568;BME280;49715;42.386;20.434;2023-02-04T10:06:41;97235.00;;;10.34;46.96
63568;BME280;49715;42.386;20.434;2023-02-04T10:09:10;97233.53;;;10.31;46.93
63568;BME280;49715;42.386;20.434;2023-02-04T10:11:39;97219.66;;;10.29;46.64
63568;BME280;49715;42.386;20.434;2023-02-04T10:14:20;97215.91;;;10.32;46.67
63568;BME280;49715;42.386;20.434;2023-02-04T10:16:56;97202.28;;;10.37;46.65
63568;BME280;49715;42.386;20.434;2023-02-04T10:19:23;97190.28;;;10.42;46.71
63568;BME280;49715;42.386;20.434;2023-02-04T10:21:50;97194.63;;;10.51;46.62
63568;BME280;49715;42.386;20.434;2023-02-04T10:24:24;97186.44;;;10.63;46.38
63568;BME280;49715;42.386;20.434;2023-02-04T10:27:09;97185.84;;;10.77;46.07
63568;BME280;49715;42.386;20.434;2023-02-04T10:29:37;97176.06;;;10.95;46.33
63568;BME280;49715;42.386;20.434;2023-02-04T10:32:23;97178.25;;;11.16;46.35
63568;BME280;49715;42.386;20.434;2023-02-04T10:34:56;97172.53;;;11.29;45.98
63568;BME280;49715;42.386;20.434;2023-02-04T10:37:24;97170.91;;;11.36;45.89
63568;BME280;49715;42.386;20.434;2023-02-04T10:39:51;97164.50;;;11.47;45.70
63568;BME280;49715;42.386;20.434;2023-02-04T10:42:25;97163.50;;;11.48;45.50
63568;BME280;49715;42.386;20.434;2023-02-04T10:44:52;97164.00;;;11.51;45.54
63568;BME280;49715;42.386;20.434;2023-02-04T10:47:27;97158.88;;;11.50;45.24
63568;BME280;49715;42.386;20.434;2023-02-04T10:52:36;97174.22;;;11.38;44.78
63568;BME280;49715;42.386;20.434;2023-02-04T10:55:05;97165.09;;;11.24;45.36
63568;BME280;49715;42.386;20.434;2023-02-04T10:57:37;97172.16;;;11.16;45.46
63568;BME280;49715;42.386;20.434;2023-02-04T11:00:19;97180.22;;;11.06;45.33
63568;BME280;49715;42.386;20.434;2023-02-04T11:03:02;97176.06;;;10.95;45.23
63568;BME280;49715;42.386;20.434;2023-02-04T11:05:56;97179.81;;;10.85;45.12
63568;BME280;49715;42.386;20.434;2023-02-04T11:08:26;97179.25;;;10.73;45.22
63568;BME280;49715;42.386;20.434;2023-02-04T11:14:00;97170.56;;;10.46;45.67
63568;BME280;49715;42.386;20.434;2023-02-04T11:16:30;97171.06;;;10.24;45.42
63568;BME280;49715;42.386;20.434;2023-02-04T11:19:11;97178.16;;;10.05;45.83
63568;BME280;49715;42.386;20.434;2023-02-04T11:24:22;97176.56;;;9.95;46.83
63568;BME280;49715;42.386;20.434;2023-02-04T11:26:51;97161.50;;;10.05;46.88
63568;BME280;49715;42.386;20.434;2023-02-04T11:31:58;97134.94;;;10.16;46.79
63568;BME280;49715;42.386;20.434;2023-02-04T11:34:28;97141.34;;;10.14;46.63
63568;BME280;49715;42.386;20.434;2023-02-04T11:36:56;97128.78;;;10.07;46.70
63568;BME280;49715;42.386;20.434;2023-02-04T11:39:34;97110.53;;;10.06;45.97
63568;BME280;49715;42.386;20.434;2023-02-04T11:42:03;97117.38;;;9.99;45.58
63568;BME280;49715;42.386;20.434;2023-02-04T11:44:30;97112.69;;;10.11;45.53
63568;BME280;49715;42.386;20.434;2023-02-04T11:46:59;97108.06;;;10.30;45.54
63568;BME280;49715;42.386;20.434;2023-02-04T11:49:27;97104.72;;;10.54;45.38
63568;BME280;49715;42.386;20.434;2023-02-04T11:52:12;97083.88;;;10.69;45.34
63568;BME280;49715;42.386;20.434;2023-02-04T11:54:39;97088.38;;;11.01;45.26
63568;BME280;49715;42.386;20.434;2023-02-04T11:57:08;97076.72;;;11.37;45.00
63568;BME280;49715;42.386;20.434;2023-02-04T11:59:36;97064.53;;;11.76;44.96
63568;BME280;49715;42.386;20.434;2023-02-04T12:02:14;97057.25;;;12.03;43.61
63568;BME280;49715;42.386;20.434;2023-02-04T12:05:14;97063.97;;;12.22;43.20
63568;BME280;49715;42.386;20.434;2023-02-04T12:07:42;97065.00;;;12.13;42.95
63568;BME280;49715;42.386;20.434;2023-02-04T12:10:21;97067.00;;;12.02;43.25
63568;BME280;49715;42.386;20.434;2023-02-04T12:12:51;97056.59;;;12.01;43.12
63568;BME280;49715;42.386;20.434;2023-02-04T12:15:24;97055.44;;;12.03;42.80
63568;BME280;49715;42.386;20.434;2023-02-04T12:18:06;97051.31;;;12.01;42.16
63568;BME280;49715;42.386;20.434;2023-02-04T12:20:34;97060.06;;;11.93;42.21
63568;BME280;49715;42.386;20.434;2023-02-04T12:23:02;97053.81;;;11.70;41.96
63568;BME280;49715;42.386;20.434;2023-02-04T12:25:29;97056.13;;;11.48;39.16
63568;BME280;49715;42.386;20.434;2023-02-04T12:27:56;97061.59;;;11.47;42.18
63568;BME280;49715;42.386;20.434;2023-02-04T12:30:24;97069.97;;;11.34;42.25
63568;BME280;49715;42.386;20.434;2023-02-04T12:32:51;97068.16;;;11.34;42.00
63568;BME280;49715;42.386;20.434;2023-02-04T12:35:18;97075.41;;;11.41;42.32
63568;BME280;49715;42.386;20.434;2023-02-04T12:37:45;97057.94;;;11.40;42.13
63568;BME280;49715;42.386;20.434;2023-02-04T12:40:17;97060.59;;;11.40;41.87
63568;BME280;49715;42.386;20.434;2023-02-04T12:42:44;97058.44;;;11.43;41.87
63568;BME280;49715;42.386;20.434;2023-02-04T12:45:12;97050.34;;;11.61;41.78
63568;BME280;49715;42.386;20.434;2023-02-04T12:47:39;97063.03;;;11.98;41.64
63568;BME280;49715;42.386;20.434;2023-02-04T12:50:07;97064.81;;;12.14;38.09
63568;BME280;49715;42.386;20.434;2023-02-04T12:52:34;97073.03;;;12.27;41.17
63568;BME280;49715;42.386;20.434;2023-02-04T12:55:03;97067.50;;;11.98;40.14
63568;BME280;49715;42.386;20.434;2023-02-04T12:57:33;97084.66;;;11.77;39.98
63568;BME280;49715;42.386;20.434;2023-02-04T12:59:59;97117.59;;;11.08;39.16
63568;BME280;49715;42.386;20.434;2023-02-04T13:02:27;97122.56;;;10.69;41.25
63568;BME280;49715;42.386;20.434;2023-02-04T13:04:54;97112.06;;;9.91;42.41
63568;BME280;49715;42.386;20.434;2023-02-04T13:07:21;97133.00;;;9.21;43.46
63568;BME280;49715;42.386;20.434;2023-02-04T13:09:48;97129.50;;;8.57;44.19
63568;BME280;49715;42.386;20.434;2023-02-04T13:12:15;97128.53;;;8.11;44.88
63568;BME280;49715;42.386;20.434;2023-02-04T13:14:42;97139.94;;;7.73;45.53
63568;BME280;49715;42.386;20.434;2023-02-04T13:17:09;97173.47;;;7.40;48.27